Time;durP1;ratioP1;P1;durP2;ratioP2;P2;SDS_P1;SDS_P2;PMS_P1;PMS_P2;Temp;Humidity;BMP_temperature;BMP_pressure;BME280_temperature;BME280_humidity;BME280_pressure;Samples;Min_cycle;Max_cycle;Signal;HPM_P1;HPM_P2
2022/10/27 00:05:53;;;;;;;14.50;4.03;;;11.90;99.90;;;;;;20998813;28;20060;-76
2022/10/27 00:15:56;;;;;;;12.93;5.33;;;11.80;99.90;;;;;;20998754;28;20074;-75
2022/10/27 00:25:58;;;;;;;23.25;5.50;;;11.80;99.90;;;;;;20997798;28;20086;-76
2022/10/27 00:36:04;;;;;;;27.30;6.00;;;11.80;99.90;;;;;;21013933;28;20033;-75
2022/10/27 00:46:41;;;;;;;10.30;5.30;;;11.80;99.90;;;;;;20997212;28;20112;-76
2022/10/27 00:56:44;;;;;;;12.90;5.72;;;11.70;99.90;;;;;;20995511;28;20066;-76
2022/10/27 01:06:45;;;;;;;13.57;6.85;;;11.60;99.90;;;;;;20993147;28;20031;-76
2022/10/27 01:17:01;;;;;;;17.57;8.43;;;11.60;99.90;;;;;;20977925;28;20059;-75
2022/10/27 01:27:22;;;;;;;16.67;6.18;;;11.60;99.90;;;;;;20959012;28;20564;-76
2022/10/27 01:37:43;;;;;;;16.30;7.13;;;11.50;99.90;;;;;;20992261;28;20510;-76
2022/10/27 01:47:45;;;;;;;14.63;5.60;;;11.40;99.90;;;;;;20991217;28;20032;-76
2022/10/27 01:57:48;;;;;;;16.05;6.35;;;11.40;99.90;;;;;;20991252;28;20028;-76
2022/10/27 02:08:06;;;;;;;11.38;5.65;;;11.40;99.90;;;;;;20990322;28;20074;-76
2022/10/27 02:18:11;;;;;;;14.73;6.18;;;11.30;99.90;;;;;;20996667;28;20040;-75
2022/10/27 02:28:14;;;;;;;15.82;5.68;;;11.20;99.90;;;;;;21006585;28;20039;-75
2022/10/27 02:38:15;;;;;;;11.40;5.63;;;11.20;99.90;;;;;;21006064;28;20029;-75
2022/10/27 02:48:16;;;;;;;13.13;5.63;;;11.20;99.90;;;;;;21005769;28;20036;-75
2022/10/27 02:58:17;;;;;;;15.67;4.80;;;11.20;99.90;;;;;;21037839;28;20440;-75
2022/10/27 03:08:17;;;;;;;20.60;4.97;;;11.00;99.90;;;;;;21087252;28;20027;-75
2022/10/27 03:18:18;;;;;;;12.40;5.30;;;11.10;99.90;;;;;;21087132;28;20043;-75
2022/10/27 03:28:19;;;;;;;11.00;4.93;;;11.00;99.90;;;;;;21067297;28;20657;-75
2022/10/27 03:38:20;;;;;;;19.83;5.43;;;11.10;99.90;;;;;;21049584;28;20040;-76
2022/10/27 03:48:20;;;;;;;16.97;5.30;;;11.10;99.90;;;;;;21028001;28;20033;-76
2022/10/27 03:58:21;;;;;;;9.67;4.67;;;11.00;99.90;;;;;;21083245;28;20028;-77
2022/10/27 04:08:22;;;;;;;11.00;6.10;;;10.90;99.90;;;;;;21064809;28;20032;-76
2022/10/27 04:18:23;;;;;;;14.70;5.83;;;10.60;99.90;;;;;;21081469;28;20395;-76
2022/10/27 04:28:24;;;;;;;14.80;5.83;;;10.30;99.90;;;;;;21082197;28;20670;-77
2022/10/27 04:38:24;;;;;;;15.17;6.10;;;10.30;99.90;;;;;;21007076;28;20064;-77
2022/10/27 04:48:26;;;;;;;15.73;5.35;;;10.50;99.90;;;;;;20937431;28;20045;-76
2022/10/27 04:58:27;;;;;;;13.50;6.03;;;10.50;99.90;;;;;;20922702;28;20485;-78
2022/10/27 05:08:28;;;;;;;12.53;5.73;;;10.50;99.90;;;;;;20912478;28;20029;-78
2022/10/27 05:18:30;;;;;;;13.77;5.35;;;10.40;99.90;;;;;;20921192;28;20506;-78
2022/10/27 05:28:30;;;;;;;;;;;10.30;99.90;;;;;;20909749;28;20033;-77
2022/10/27 05:38:31;;;;;;;12.20;5.23;;;10.20;99.90;;;;;;20991082;28;19912;-76
2022/10/27 05:48:32;;;;;;;13.93;6.13;;;10.10;99.90;;;;;;20908170;28;20319;-77
2022/10/27 05:58:33;;;;;;;17.73;5.37;;;10.00;99.90;;;;;;20905525;28;20037;-77
2022/10/27 06:08:34;;;;;;;12.73;5.87;;;9.90;99.90;;;;;;20927151;28;20052;-78
2022/10/27 06:18:34;;;;;;;24.03;6.60;;;9.90;99.90;;;;;;20897482;28;20064;-77
2022/10/27 06:28:36;;;;;;;14.73;6.43;;;9.80;99.90;;;;;;20891900;28;20073;-77
2022/10/27 06:38:36;;;;;;;11.48;6.18;;;9.70;99.90;;;;;;20897715;28;20041;-78
2022/10/27 06:48:37;;;;;;;15.13;6.37;;;9.80;99.90;;;;;;20930322;28;20490;-78
2022/10/27 06:58:39;;;;;;;16.07;5.63;;;9.90;99.90;;;;;;20909066;28;20037;-78
2022/10/27 07:08:39;;;;;;;;;;;10.00;99.90;;;;;;20934375;28;20426;-77
2022/10/27 07:18:40;;;;;;;16.97;7.83;;;10.00;99.90;;;;;;20905932;28;19962;-77
2022/10/27 07:28:41;;;;;;;17.17;7.60;;;10.10;99.90;;;;;;20928305;28;20488;-77
2022/10/27 07:38:41;;;;;;;19.43;7.97;;;10.20;99.90;;;;;;20927546;28;20035;-77
2022/10/27 07:48:42;;;;;;;61.03;9.23;;;10.30;99.90;;;;;;20912857;28;20107;-77
2022/10/27 07:58:46;;;;;;;53.93;9.67;;;10.50;99.90;;;;;;20938784;28;20086;-77
2022/10/27 08:08:47;;;;;;;205.55;15.63;;;10.70;99.90;;;;;;20915123;28;20029;-75
2022/10/27 08:18:48;;;;;;;19.37;9.77;;;10.80;99.90;;;;;;20940995;28;20546;-78
2022/10/27 08:28:48;;;;;;;17.83;9.57;;;11.30;99.90;;;;;;21009225;28;20097;-79
2022/10/27 08:38:49;;;;;;;16.47;8.87;;;11.20;99.90;;;;;;21010346;28;20068;-78
2022/10/27 08:48:55;;;;;;;194.27;13.97;;;11.30;99.90;;;;;;21000569;28;20123;-77
2022/10/27 08:58:56;;;;;;;379.15;19.42;;;11.50;99.90;;;;;;20994713;28;20060;-77
2022/10/27 09:09:17;;;;;;;253.47;18.40;;;11.60;99.90;;;;;;21018501;28;20031;-77
2022/10/27 09:19:28;;;;;;;48.93;12.00;;;11.60;99.90;;;;;;20991878;28;20025;-78
2022/10/27 09:29:31;;;;;;;66.05;12.70;;;11.90;99.90;;;;;;21004630;28;20168;-77
2022/10/27 09:39:31;;;;;;;28.95;11.10;;;12.30;99.90;;;;;;20974172;28;20195;-77
2022/10/27 09:49:38;;;;;;;33.33;10.77;;;12.60;99.90;;;;;;21002216;28;20028;-77
2022/10/27 09:59:40;;;;;;;19.83;9.80;;;13.00;99.90;;;;;;21004061;28;20059;-77
2022/10/27 10:09:41;;;;;;;;;;;13.60;99.90;;;;;;21001145;28;20067;-77
2022/10/27 10:19:45;;;;;;;45.72;11.80;;;14.00;99.90;;;;;;21000447;28;20390;-77
2022/10/27 10:29:49;;;;;;;19.48;8.88;;;14.60;99.90;;;;;;20981819;28;20029;-77
2022/10/27 10:39:50;;;;;;;15.52;8.13;;;16.00;99.90;;;;;;20993653;28;20323;-77
2022/10/27 10:49:54;;;;;;;14.37;8.20;;;17.10;99.90;;;;;;21000388;28;20090;-77
2022/10/27 10:59:56;;;;;;;21.42;8.05;;;17.90;99.90;;;;;;21014651;28;20050;-77
2022/10/27 11:10:06;;;;;;;13.77;7.82;;;18.60;99.90;;;;;;21011632;28;20033;-77
2022/10/27 11:20:19;;;;;;;16.85;7.07;;;19.30;99.90;;;;;;20990947;28;20403;-77
2022/10/27 11:30:24;;;;;;;15.63;7.80;;;18.90;99.90;;;;;;21006691;28;20079;-77
2022/10/27 11:40:31;;;;;;;13.55;7.35;;;19.10;99.90;;;;;;21009402;28;20551;-78
2022/10/27 11:50:59;;;;;;;22.05;7.65;;;20.30;99.90;;;;;;21031512;28;20107;-79
2022/10/27 12:01:29;;;;;;;13.05;7.60;;;20.40;99.90;;;;;;21023168;28;20559;-77
2022/10/27 12:11:50;;;;;;;11.57;6.38;;;21.00;99.90;;;;;;21036784;28;20107;-80
2022/10/27 12:22:04;;;;;;;25.17;6.97;;;21.20;99.90;;;;;;21026855;28;20421;-79
2022/10/27 12:32:25;;;;;;;12.35;6.63;;;20.50;99.90;;;;;;21028468;28;20727;-78
2022/10/27 12:43:04;;;;;;;14.20;6.43;;;21.40;99.90;;;;;;21027236;28;20108;-80
2022/10/27 12:53:33;;;;;;;17.50;6.57;;;21.40;99.90;;;;;;21017276;28;20496;-79
2022/10/27 13:03:39;;;;;;;16.35;5.65;;;21.70;99.90;;;;;;21028108;28;20411;-79
2022/10/27 13:13:54;;;;;;;10.48;4.95;;;21.90;99.90;;;;;;21027982;28;20033;-78
2022/10/27 13:24:07;;;;;;;12.35;5.07;;;21.60;99.90;;;;;;21028361;28;20032;-79
2022/10/27 13:34:07;;;;;;;12.68;4.85;;;22.80;99.90;;;;;;21026669;28;20120;-79
2022/10/27 13:44:24;;;;;;;11.83;5.20;;;21.50;99.90;;;;;;20999900;28;20657;-76
2022/10/27 13:54:50;;;;;;;13.57;5.72;;;21.60;99.90;;;;;;21038163;28;20101;-79
2022/10/27 14:04:59;;;;;;;14.52;5.88;;;21.60;99.90;;;;;;21042026;28;20020;-79
2022/10/27 14:15:26;;;;;;;19.40;6.03;;;21.30;99.90;;;;;;21057050;28;20490;-80
2022/10/27 14:25:29;;;;;;;16.15;5.20;;;21.40;99.90;;;;;;21044656;28;20193;-79
2022/10/27 14:35:29;;;;;;;13.75;5.22;;;21.60;99.90;;;;;;21038622;28;20042;-78
2022/10/27 14:45:30;;;;;;;11.07;4.57;;;21.40;99.90;;;;;;21052886;28;20032;-79
2022/10/27 14:55:37;;;;;;;13.47;5.37;;;20.80;99.90;;;;;;21064879;28;20024;-79
2022/10/27 15:05:44;;;;;;;13.20;5.20;;;20.30;99.90;;;;;;21033066;28;20082;-79
2022/10/27 15:15:48;;;;;;;14.05;4.75;;;19.90;99.90;;;;;;21031137;28;20119;-79
2022/10/27 15:25:54;;;;;;;13.82;4.70;;;19.90;99.90;;;;;;20997336;28;20059;-79
2022/10/27 15:36:08;;;;;;;15.98;5.75;;;19.70;99.90;;;;;;20977068;28;20048;-79
2022/10/27 15:46:26;;;;;;;8.00;4.55;;;19.10;99.90;;;;;;20930464;28;20032;-78
2022/10/27 15:56:36;;;;;;;7.72;4.75;;;18.10;99.90;;;;;;20987110;28;20036;-79
2022/10/27 16:06:37;;;;;;;18.60;6.80;;;17.40;99.90;;;;;;20962598;28;20041;-78
2022/10/27 16:16:38;;;;;;;13.37;5.23;;;16.90;99.90;;;;;;20979242;28;20361;-78
2022/10/27 16:26:38;;;;;;;16.17;5.10;;;16.80;99.90;;;;;;20982838;28;20035;-77
2022/10/27 16:36:39;;;;;;;13.00;4.50;;;16.50;99.90;;;;;;20986932;28;20032;-78
2022/10/27 16:46:40;;;;;;;10.23;4.50;;;16.50;99.90;;;;;;21103917;28;20034;-79
2022/10/27 16:56:41;;;;;;;14.17;4.90;;;16.40;99.90;;;;;;21011629;28;20028;-79
2022/10/27 17:06:41;;;;;;;10.00;4.40;;;16.30;99.90;;;;;;21018151;28;20059;-78
2022/10/27 17:16:42;;;;;;;18.57;4.40;;;16.00;99.90;;;;;;20960798;28;20458;-78
2022/10/27 17:26:43;;;;;;;17.40;4.50;;;16.10;99.90;;;;;;21002029;28;20038;-78
2022/10/27 17:36:44;;;;;;;14.10;4.27;;;16.20;99.90;;;;;;21110326;28;20032;-76
2022/10/27 17:46:44;;;;;;;8.97;3.70;;;16.10;99.90;;;;;;21097953;28;20505;-78
2022/10/27 17:56:45;;;;;;;17.60;4.10;;;15.90;99.90;;;;;;20930180;28;20037;-80
2022/10/27 18:06:46;;;;;;;13.23;3.90;;;15.90;99.90;;;;;;20987887;28;20399;-78
2022/10/27 18:16:47;;;;;;;8.00;3.97;;;15.60;99.90;;;;;;21003295;28;20714;-78
2022/10/27 18:26:48;;;;;;;12.20;3.83;;;15.50;99.90;;;;;;21008213;28;20781;-78
2022/10/27 18:36:48;;;;;;;10.77;3.93;;;15.30;99.90;;;;;;21008072;28;20028;-78
2022/10/27 18:46:49;;;;;;;12.77;4.43;;;15.10;99.90;;;;;;21012202;28;20092;-78
2022/10/27 18:56:50;;;;;;;11.40;3.80;;;14.90;99.90;;;;;;20994885;28;20029;-77
2022/10/27 19:06:52;;;;;;;10.83;3.73;;;14.80;99.90;;;;;;20963555;28;20029;-78
2022/10/27 19:16:52;;;;;;;12.98;4.38;;;14.70;99.90;;;;;;20986281;28;20035;-79
2022/10/27 19:26:53;;;;;;;9.53;3.97;;;14.60;99.90;;;;;;21001846;28;20052;-78
2022/10/27 19:36:54;;;;;;;13.20;3.60;;;14.50;99.90;;;;;;20989283;28;20036;-78
2022/10/27 19:46:56;;;;;;;16.10;3.90;;;14.30;99.90;;;;;;20993981;28;20042;-78
2022/10/27 19:56:57;;;;;;;18.52;3.65;;;14.20;99.90;;;;;;20968497;28;20407;-78
2022/10/27 20:06:57;;;;;;;6.73;3.70;;;14.10;99.90;;;;;;20974129;28;20024;-78
2022/10/27 20:16:58;;;;;;;10.23;3.53;;;14.00;99.90;;;;;;20973244;28;20036;-79
2022/10/27 20:26:59;;;;;;;7.43;3.27;;;14.00;99.90;;;;;;20977587;28;20115;-78
2022/10/27 20:37:00;;;;;;;15.50;3.97;;;13.90;99.90;;;;;;20957384;28;20040;-78
2022/10/27 20:47:01;;;;;;;11.37;4.13;;;13.90;99.90;;;;;;20964250;28;20024;-77
2022/10/27 20:57:01;;;;;;;12.63;4.13;;;13.80;99.90;;;;;;20994945;28;20120;-77
2022/10/27 21:07:02;;;;;;;7.27;3.60;;;13.70;99.90;;;;;;21010277;28;20033;-77
2022/10/27 21:17:03;;;;;;;12.00;3.83;;;13.60;99.90;;;;;;21003822;28;20540;-77
2022/10/27 21:27:04;;;;;;;13.10;4.20;;;13.60;99.90;;;;;;20986558;28;20029;-77
2022/10/27 21:37:05;;;;;;;14.97;4.27;;;13.60;99.90;;;;;;20983546;28;20072;-77
2022/10/27 21:47:06;;;;;;;11.70;3.83;;;13.60;99.90;;;;;;20993621;28;20028;-78
2022/10/27 21:57:07;;;;;;;14.73;4.43;;;13.50;99.90;;;;;;21011333;28;20088;-77
2022/10/27 22:07:08;;;;;;;9.52;4.25;;;13.30;99.90;;;;;;21008533;28;20032;-77
2022/10/27 22:17:09;;;;;;;13.80;4.20;;;13.20;99.90;;;;;;20994776;28;20028;-77
2022/10/27 22:27:10;;;;;;;10.37;4.60;;;13.30;99.90;;;;;;21005171;28;20372;-77
2022/10/27 22:37:10;;;;;;;19.77;5.50;;;13.30;99.90;;;;;;21013159;28;20490;-77
2022/10/27 22:47:11;;;;;;;13.00;4.63;;;13.20;99.90;;;;;;21021742;28;20067;-77
2022/10/27 22:57:12;;;;;;;11.47;3.73;;;13.20;99.90;;;;;;21001934;28;20025;-77
2022/10/27 23:07:13;;;;;;;9.20;3.90;;;13.10;99.90;;;;;;20999901;28;20033;-77
2022/10/27 23:17:13;;;;;;;8.60;4.40;;;12.80;99.90;;;;;;21001019;28;20394;-77
2022/10/27 23:27:14;;;;;;;17.13;4.73;;;12.90;99.90;;;;;;21014458;28;20113;-77
2022/10/27 23:37:15;;;;;;;9.13;3.73;;;12.70;99.90;;;;;;21038553;28;20499;-77
2022/10/27 23:47:16;;;;;;;16.40;4.57;;;12.80;99.90;;;;;;21079283;28;20028;-77
2022/10/27 23:57:16;;;;;;;8.83;3.40;;;12.80;99.90;;;;;;21101248;28;20078;-78
